createdAt,value
2017-06-30T18:39:11.875Z,2.80
2017-06-30T18:51:07.581Z,1.93
2017-06-30T19:18:41.234Z,9.10
2017-06-30T19:27:16.554Z,9.20
2017-06-30T19:29:44.035Z,9.17
2017-06-30T19:32:10.503Z,12.13
2017-06-30T19:34:36.843Z,12.10
2017-06-30T20:43:10.542Z,14.13
2017-06-30T20:45:36.906Z,11.70
2017-06-30T20:50:33.078Z,13.43
2017-06-30T21:01:36.902Z,11.87
2017-06-30T21:04:03.244Z,14.30
2017-06-30T21:06:29.620Z,12.70
2017-06-30T21:08:56.606Z,13.90
2017-06-30T21:11:22.987Z,14.07
2017-06-30T21:13:49.344Z,14.47
2017-06-30T21:16:15.830Z,14.83
2017-06-30T21:18:42.195Z,16.23
2017-06-30T21:21:08.556Z,14.47
2017-06-30T21:23:34.899Z,14.43
2017-06-30T21:26:01.436Z,15.27
2017-06-30T21:28:27.833Z,14.23
2017-06-30T21:30:54.352Z,14.90
2017-06-30T21:33:20.698Z,14.43
2017-06-30T21:35:47.070Z,15.03
2017-06-30T21:38:13.936Z,15.00
2017-06-30T21:40:40.850Z,16.13
2017-06-30T21:43:07.815Z,13.77
2017-06-30T21:45:34.141Z,15.00
2017-06-30T21:48:00.924Z,14.03
2017-06-30T21:50:27.326Z,12.90
2017-06-30T21:52:53.693Z,11.87
2017-06-30T21:55:20.065Z,10.67
2017-06-30T21:57:46.396Z,12.90
2017-06-30T22:00:12.762Z,8.93
2017-06-30T22:02:39.106Z,8.70
2017-06-30T22:05:06.100Z,8.63
2017-06-30T22:07:32.535Z,9.00
2017-06-30T22:09:59.367Z,9.40
2017-06-30T22:12:25.774Z,9.90
2017-06-30T22:14:52.641Z,9.50
2017-06-30T22:17:20.442Z,10.33
2017-06-30T22:19:47.959Z,10.00
2017-06-30T22:22:15.406Z,11.63
2017-06-30T22:24:42.369Z,13.33
2017-06-30T22:27:09.601Z,11.77
2017-06-30T22:29:36.086Z,13.47
2017-06-30T22:32:02.588Z,10.83
2017-06-30T22:34:29.791Z,13.63
2017-06-30T22:36:56.359Z,13.00
2017-06-30T22:39:22.695Z,14.20
2017-06-30T22:41:49.140Z,14.37
2017-06-30T22:44:22.092Z,12.60
2017-06-30T22:46:48.455Z,14.37
2017-06-30T22:49:15.528Z,18.17
2017-06-30T22:51:42.530Z,15.90
2017-06-30T22:54:09.344Z,14.53
2017-06-30T22:56:35.813Z,13.80
2017-06-30T22:59:02.670Z,16.17
2017-06-30T23:01:29.053Z,14.40
2017-06-30T23:03:56.093Z,15.70
2017-06-30T23:06:22.622Z,16.97
2017-06-30T23:08:49.351Z,15.47
2017-06-30T23:11:16.713Z,16.10
2017-06-30T23:13:43.138Z,16.40
2017-06-30T23:16:09.787Z,13.87
2017-06-30T23:18:36.641Z,16.07
2017-06-30T23:21:03.226Z,13.43
2017-06-30T23:23:29.830Z,16.00
2017-06-30T23:25:56.697Z,17.60
2017-06-30T23:28:23.092Z,18.33
2017-06-30T23:30:49.803Z,13.90
2017-06-30T23:33:16.850Z,17.83
2017-06-30T23:35:44.452Z,19.13
2017-06-30T23:38:11.043Z,18.07
2017-06-30T23:40:37.702Z,19.00
2017-06-30T23:43:04.108Z,18.60
2017-06-30T23:45:30.987Z,20.07
2017-06-30T23:47:57.951Z,18.00
2017-06-30T23:50:24.587Z,20.23
2017-06-30T23:52:51.161Z,22.27
2017-06-30T23:55:18.054Z,21.10
2017-06-30T23:57:44.522Z,20.97
